createdAt,value
2023-01-21T00:00:45.722Z,0.30
2023-01-21T00:03:13.876Z,0.30
2023-01-21T00:05:41.798Z,0.30
2023-01-21T00:08:10.847Z,0.30
2023-01-21T00:10:38.469Z,0.30
2023-01-21T00:13:05.648Z,0.30
2023-01-21T00:15:33.529Z,0.30
2023-01-21T00:18:01.628Z,0.30
2023-01-21T00:20:29.078Z,0.30
2023-01-21T00:22:56.781Z,0.30
2023-01-21T00:25:24.120Z,0.30
2023-01-21T00:27:51.436Z,0.30
2023-01-21T00:30:18.929Z,0.30
2023-01-21T00:32:46.603Z,0.30
2023-01-21T00:35:15.195Z,0.30
2023-01-21T00:37:42.694Z,0.30
2023-01-21T00:40:10.343Z,0.30
2023-01-21T00:42:37.957Z,0.30
2023-01-21T00:45:04.952Z,0.40
2023-01-21T00:47:31.578Z,0.30
2023-01-21T00:49:58.292Z,0.40
2023-01-21T00:52:24.949Z,0.40
2023-01-21T00:54:51.561Z,0.30
2023-01-21T00:57:18.206Z,0.30
2023-01-21T00:59:45.067Z,0.30
2023-01-21T01:02:11.748Z,0.30
2023-01-21T01:04:39.795Z,0.30
2023-01-21T01:07:06.405Z,0.30
2023-01-21T01:09:33.492Z,0.40
2023-01-21T01:12:09.341Z,0.40
2023-01-21T01:17:32.945Z,0.40
2023-01-21T01:20:11.998Z,0.30
2023-01-21T01:22:38.743Z,0.30
2023-01-21T01:25:07.739Z,0.40
2023-01-21T01:27:50.857Z,0.30
2023-01-21T01:30:18.381Z,0.30
2023-01-21T01:32:45.154Z,0.30
2023-01-21T01:35:12.924Z,0.40
2023-01-21T01:37:40.764Z,0.40
2023-01-21T01:40:07.769Z,0.30
2023-01-21T01:42:37.514Z,0.40
2023-01-21T01:45:05.844Z,0.40
2023-01-21T01:47:44.856Z,0.40
2023-01-21T01:53:15.573Z,0.40
2023-01-21T01:56:03.292Z,0.40
2023-01-21T01:58:43.405Z,0.30
2023-01-21T02:01:11.110Z,0.40
2023-01-21T02:03:53.050Z,0.40
2023-01-21T02:06:19.895Z,0.50
2023-01-21T02:08:47.277Z,0.40
2023-01-21T02:11:17.950Z,0.50
2023-01-21T02:13:56.157Z,0.50
2023-01-21T02:16:37.972Z,0.40
2023-01-21T02:19:04.561Z,0.50
2023-01-21T02:21:54.476Z,0.50
2023-01-21T02:24:39.981Z,0.40
2023-01-21T02:27:19.111Z,0.40
2023-01-21T02:30:04.747Z,0.40
2023-01-21T02:32:37.648Z,0.40
2023-01-21T02:35:23.072Z,0.20
2023-01-21T02:38:09.939Z,0.10
2023-01-21T02:41:02.407Z,0.20
2023-01-21T02:43:32.518Z,0.20
2023-01-21T02:46:01.532Z,0.30
2023-01-21T02:48:40.583Z,0.20
2023-01-21T02:51:07.424Z,0.20
2023-01-21T02:53:35.811Z,0.10
2023-01-21T02:56:14.025Z,0.10
2023-01-21T02:58:42.498Z,0.10
2023-01-21T03:01:09.141Z,0.10
2023-01-21T03:03:56.099Z,0.00
2023-01-21T03:06:26.759Z,0.00
2023-01-21T03:08:58.659Z,0.00
2023-01-21T03:11:25.576Z,-0.10
2023-01-21T03:14:19.096Z,-0.10
2023-01-21T03:16:57.602Z,0.00
2023-01-21T03:19:27.811Z,-0.10
2023-01-21T03:21:55.871Z,-0.10
2023-01-21T03:24:23.025Z,0.00
2023-01-21T03:26:51.203Z,0.10
2023-01-21T03:29:21.193Z,0.20
2023-01-21T03:31:50.761Z,0.20
2023-01-21T03:34:18.378Z,0.30
2023-01-21T03:36:57.413Z,0.20
2023-01-21T03:39:36.052Z,0.30
2023-01-21T03:42:02.886Z,0.20
2023-01-21T03:44:29.595Z,0.20
2023-01-21T03:47:17.638Z,0.20
2023-01-21T03:49:48.060Z,0.10
2023-01-21T03:52:25.955Z,0.10
2023-01-21T03:54:53.044Z,0.10
2023-01-21T03:57:19.656Z,0.10
2023-01-21T03:59:46.747Z,0.10
2023-01-21T04:02:13.465Z,0.10
2023-01-21T04:04:40.119Z,0.20
2023-01-21T04:07:06.756Z,0.20
2023-01-21T04:09:33.360Z,0.20
2023-01-21T04:12:00.596Z,0.20
2023-01-21T04:14:50.278Z,0.30
2023-01-21T04:17:16.935Z,0.30
2023-01-21T04:19:43.513Z,0.30
2023-01-21T04:22:10.145Z,0.20
2023-01-21T04:24:36.836Z,0.20
2023-01-21T04:27:03.502Z,0.20
2023-01-21T04:29:30.145Z,0.20
2023-01-21T04:31:56.769Z,0.20
2023-01-21T04:34:23.383Z,0.20
2023-01-21T04:36:50.090Z,0.20
2023-01-21T04:39:16.771Z,0.30
2023-01-21T04:41:43.496Z,0.30
2023-01-21T04:44:10.211Z,0.30
2023-01-21T04:46:36.931Z,0.30
2023-01-21T04:49:06.628Z,0.30
2023-01-21T04:51:33.302Z,0.20
2023-01-21T04:53:59.917Z,0.10
2023-01-21T04:56:26.593Z,0.10
2023-01-21T04:58:55.592Z,0.10
2023-01-21T05:01:23.468Z,0.10
2023-01-21T05:03:50.188Z,0.10
2023-01-21T05:06:16.892Z,0.00
2023-01-21T05:08:44.569Z,0.00
2023-01-21T05:11:12.128Z,-0.10
2023-01-21T05:13:38.766Z,0.00
2023-01-21T05:16:08.315Z,-0.10
2023-01-21T05:18:35.759Z,-0.20
2023-01-21T05:21:02.455Z,-0.20
2023-01-21T05:23:29.160Z,-0.20
2023-01-21T05:25:55.791Z,-0.10
2023-01-21T05:28:22.447Z,-0.10
2023-01-21T05:30:49.135Z,-0.10
2023-01-21T05:33:15.831Z,-0.10
2023-01-21T05:35:53.741Z,-0.20
2023-01-21T05:38:20.404Z,-0.10
2023-01-21T05:40:47.124Z,-0.10
2023-01-21T05:43:13.936Z,-0.10
2023-01-21T05:45:40.526Z,-0.10
2023-01-21T05:48:07.135Z,-0.10
2023-01-21T05:50:33.761Z,-0.20
2023-01-21T05:53:00.443Z,-0.10
2023-01-21T05:55:27.058Z,-0.10
2023-01-21T05:57:53.751Z,0.00
2023-01-21T06:00:20.556Z,-0.10
2023-01-21T06:02:47.348Z,-0.10
2023-01-21T06:05:14.049Z,-0.20
2023-01-21T06:07:40.669Z,-0.20
2023-01-21T06:10:17.855Z,-0.20
2023-01-21T06:12:44.762Z,-0.20
2023-01-21T06:15:11.507Z,-0.20
2023-01-21T06:17:39.039Z,-0.30
2023-01-21T06:20:06.219Z,-0.30
2023-01-21T06:22:32.943Z,-0.30
2023-01-21T06:24:59.562Z,-0.30
2023-01-21T06:27:26.240Z,-0.30
2023-01-21T06:29:52.847Z,-0.40
2023-01-21T06:32:19.559Z,-0.40
2023-01-21T06:34:46.777Z,-0.40
2023-01-21T06:37:13.468Z,-0.30
2023-01-21T06:39:40.067Z,-0.40
2023-01-21T06:42:06.752Z,-0.30
2023-01-21T06:44:33.414Z,-0.30
2023-01-21T06:47:01.210Z,-0.40
2023-01-21T06:49:28.224Z,-0.40
2023-01-21T06:51:56.323Z,-0.40
2023-01-21T06:54:23.006Z,-0.40
2023-01-21T06:56:49.614Z,-0.40
2023-01-21T06:59:16.233Z,-0.40
2023-01-21T07:01:42.933Z,-0.40
2023-01-21T07:04:09.617Z,-0.40
2023-01-21T07:06:36.554Z,-0.40
2023-01-21T07:09:03.880Z,-0.40
2023-01-21T07:11:39.625Z,-0.40
2023-01-21T07:14:06.263Z,-0.40
2023-01-21T07:16:32.893Z,-0.40
2023-01-21T07:18:59.546Z,-0.40
2023-01-21T07:21:26.560Z,-0.50
2023-01-21T07:23:53.643Z,-0.50
2023-01-21T07:26:20.479Z,-0.40
2023-01-21T07:28:47.151Z,-0.50
2023-01-21T07:31:14.122Z,-0.40
2023-01-21T07:33:41.099Z,-0.40
2023-01-21T07:36:07.916Z,-0.30
2023-01-21T07:38:34.575Z,-0.40
2023-01-21T07:41:01.176Z,-0.40
2023-01-21T07:43:28.232Z,-0.40
2023-01-21T07:45:58.495Z,-0.40
2023-01-21T07:48:26.597Z,-0.40
2023-01-21T07:50:56.189Z,-0.40
2023-01-21T07:53:27.437Z,-0.40
2023-01-21T07:55:54.123Z,-0.30
2023-01-21T07:58:20.724Z,-0.30
2023-01-21T08:00:47.360Z,-0.30
2023-01-21T08:03:14.114Z,-0.20
2023-01-21T08:05:40.787Z,-0.20
2023-01-21T08:08:07.437Z,-0.10
2023-01-21T08:10:34.128Z,-0.20
2023-01-21T08:13:01.876Z,-0.30
2023-01-21T08:15:28.737Z,-0.30
2023-01-21T08:17:56.487Z,-0.20
2023-01-21T08:20:23.702Z,-0.20
2023-01-21T08:22:50.692Z,-0.20
2023-01-21T08:25:17.952Z,-0.20
2023-01-21T08:27:44.920Z,-0.20
2023-01-21T08:30:11.751Z,-0.20
2023-01-21T08:32:38.413Z,-0.10
2023-01-21T08:35:05.409Z,-0.10
2023-01-21T08:37:32.091Z,-0.10
2023-01-21T08:39:58.685Z,-0.20
2023-01-21T08:42:25.323Z,-0.10
2023-01-21T08:44:53.987Z,-0.10
2023-01-21T08:47:20.942Z,-0.10
2023-01-21T08:49:47.646Z,-0.10
2023-01-21T08:52:18.662Z,-0.10
2023-01-21T08:54:45.286Z,0.00
2023-01-21T08:57:12.557Z,0.00
2023-01-21T08:59:39.451Z,0.00
2023-01-21T09:02:06.181Z,0.00
2023-01-21T09:04:32.822Z,0.00
2023-01-21T09:06:59.424Z,0.10
2023-01-21T09:09:26.024Z,0.10
2023-01-21T09:11:52.720Z,0.10
2023-01-21T09:14:20.086Z,0.10
2023-01-21T09:16:50.240Z,0.20
2023-01-21T09:19:16.983Z,0.20
2023-01-21T09:21:43.692Z,0.30
2023-01-21T09:24:10.400Z,0.30
2023-01-21T09:26:37.107Z,0.30
2023-01-21T09:29:03.802Z,0.30
2023-01-21T09:31:30.873Z,0.50
2023-01-21T09:33:59.697Z,0.40
2023-01-21T09:36:29.454Z,0.40
2023-01-21T09:38:56.671Z,0.30
2023-01-21T09:41:29.362Z,0.50
2023-01-21T09:44:03.520Z,0.40
2023-01-21T09:46:35.936Z,0.40
2023-01-21T09:49:03.952Z,0.40
2023-01-21T09:51:52.638Z,0.40
2023-01-21T09:54:24.042Z,0.40
2023-01-21T09:57:04.133Z,0.30
2023-01-21T09:59:55.669Z,0.30
2023-01-21T10:02:42.472Z,0.40
2023-01-21T10:05:24.104Z,0.40
2023-01-21T10:07:56.869Z,0.50
2023-01-21T10:10:23.426Z,0.40
2023-01-21T10:12:56.083Z,0.50
2023-01-21T10:15:42.335Z,0.50
2023-01-21T10:18:24.927Z,0.60
2023-01-21T10:20:55.795Z,0.60
2023-01-21T10:23:26.656Z,0.60
2023-01-21T10:25:53.345Z,0.50
2023-01-21T10:28:24.412Z,0.60
2023-01-21T10:30:55.093Z,0.60
2023-01-21T10:33:24.118Z,0.60
2023-01-21T10:36:13.825Z,0.70
2023-01-21T10:38:52.560Z,0.70
2023-01-21T10:41:34.292Z,0.70
2023-01-21T10:44:19.359Z,0.70
2023-01-21T10:46:51.057Z,0.70
2023-01-21T10:49:17.682Z,0.70
2023-01-21T10:51:52.360Z,0.60
2023-01-21T10:54:22.314Z,0.60
2023-01-21T10:56:52.343Z,0.60
2023-01-21T10:59:21.212Z,0.60
2023-01-21T11:01:50.486Z,0.60
2023-01-21T11:04:19.467Z,0.60
2023-01-21T11:07:02.255Z,0.70
2023-01-21T11:09:31.910Z,0.70
2023-01-21T11:11:58.894Z,0.70
2023-01-21T11:14:25.810Z,0.70
2023-01-21T11:16:52.843Z,0.70
2023-01-21T11:19:22.445Z,0.80
2023-01-21T11:21:58.105Z,0.80
2023-01-21T11:24:25.537Z,0.80
2023-01-21T11:26:53.358Z,0.90
2023-01-21T11:29:22.377Z,1.00
2023-01-21T11:31:51.377Z,1.00
2023-01-21T11:34:19.998Z,0.90
2023-01-21T11:37:00.920Z,0.90
2023-01-21T11:39:38.652Z,0.90
2023-01-21T11:42:16.912Z,0.90
2023-01-21T11:45:04.222Z,0.80
2023-01-21T11:47:38.106Z,0.80
2023-01-21T11:50:18.714Z,0.90
2023-01-21T11:52:45.577Z,1.00
2023-01-21T11:55:19.656Z,1.00
2023-01-21T11:57:49.240Z,1.10
2023-01-21T12:00:20.356Z,1.20
2023-01-21T12:02:49.189Z,1.20
2023-01-21T12:05:26.078Z,1.20
2023-01-21T12:07:52.972Z,1.10
2023-01-21T12:10:26.176Z,1.20
2023-01-21T12:13:11.111Z,1.10
2023-01-21T12:15:37.848Z,1.10
2023-01-21T12:18:07.550Z,1.00
2023-01-21T12:20:44.901Z,1.00
2023-01-21T12:23:30.492Z,1.10
2023-01-21T12:26:02.071Z,1.20
2023-01-21T12:28:28.718Z,1.20
2023-01-21T12:31:01.598Z,1.00
2023-01-21T12:33:31.351Z,1.00
2023-01-21T12:36:00.317Z,0.90
2023-01-21T12:38:31.424Z,0.90
2023-01-21T12:40:57.994Z,0.90
2023-01-21T12:43:26.836Z,0.90
2023-01-21T12:45:56.396Z,0.80
2023-01-21T12:48:22.993Z,0.80
2023-01-21T12:50:54.445Z,0.90
2023-01-21T12:53:24.144Z,0.90
2023-01-21T12:56:09.432Z,1.00
2023-01-21T12:58:41.728Z,1.00
2023-01-21T13:01:11.156Z,1.10
2023-01-21T13:03:45.884Z,1.10
2023-01-21T13:06:17.068Z,1.10
2023-01-21T13:08:48.820Z,1.10
2023-01-21T13:11:23.183Z,1.10
2023-01-21T13:14:08.126Z,1.10
2023-01-21T13:16:43.569Z,1.10
2023-01-21T13:19:12.622Z,1.10
2023-01-21T13:21:41.989Z,1.10
2023-01-21T13:24:11.455Z,1.10
2023-01-21T13:26:38.241Z,1.10
2023-01-21T13:29:14.073Z,1.10
2023-01-21T13:31:46.986Z,1.10
2023-01-21T13:34:32.933Z,1.10
2023-01-21T13:37:20.740Z,1.10
2023-01-21T13:39:50.517Z,1.10
2023-01-21T13:42:23.191Z,1.00
2023-01-21T13:45:05.360Z,1.10
2023-01-21T13:47:32.044Z,1.10
2023-01-21T13:49:58.790Z,1.00
2023-01-21T13:52:32.853Z,1.00
2023-01-21T13:55:05.614Z,0.90
2023-01-21T13:57:44.730Z,0.90
2023-01-21T14:00:12.833Z,0.80
2023-01-21T14:02:49.430Z,0.80
2023-01-21T14:05:34.718Z,0.80
2023-01-21T14:08:01.352Z,0.80
2023-01-21T14:10:32.990Z,0.80
2023-01-21T14:13:00.623Z,0.80
2023-01-21T14:15:36.443Z,0.80
2023-01-21T14:18:11.868Z,0.70
2023-01-21T14:20:41.633Z,0.60
2023-01-21T14:23:28.682Z,0.60
2023-01-21T14:25:56.320Z,0.60
2023-01-21T14:28:30.994Z,0.60
2023-01-21T14:31:02.804Z,0.60
2023-01-21T14:33:34.460Z,0.50
2023-01-21T14:36:06.579Z,0.60
2023-01-21T14:38:40.025Z,0.60
2023-01-21T14:41:10.601Z,0.70
2023-01-21T14:43:37.928Z,0.70
2023-01-21T14:46:24.814Z,0.70
2023-01-21T14:49:06.333Z,0.70
2023-01-21T14:51:34.706Z,0.70
2023-01-21T14:54:08.751Z,0.60
2023-01-21T14:56:36.316Z,0.60
2023-01-21T14:59:06.635Z,0.50
2023-01-21T15:01:46.114Z,0.50
2023-01-21T15:04:27.396Z,0.50
2023-01-21T15:07:24.033Z,0.50
2023-01-21T15:09:52.832Z,0.50
2023-01-21T15:12:27.473Z,0.50
2023-01-21T15:15:15.365Z,0.50
2023-01-21T15:17:47.093Z,0.40
2023-01-21T15:20:32.460Z,0.40
2023-01-21T15:23:21.761Z,0.30
2023-01-21T15:26:07.028Z,0.30
2023-01-21T15:28:40.505Z,0.20
2023-01-21T15:31:08.948Z,0.20
2023-01-21T15:33:44.549Z,0.20
2023-01-21T15:36:18.538Z,0.20
2023-01-21T15:38:45.212Z,0.20
2023-01-21T15:41:25.886Z,0.20
2023-01-21T15:43:59.604Z,0.10
2023-01-21T15:46:32.719Z,0.10
2023-01-21T15:49:14.648Z,0.10
2023-01-21T15:51:41.251Z,0.10
2023-01-21T15:54:23.127Z,0.10
2023-01-21T15:56:58.120Z,0.10
2023-01-21T15:59:44.487Z,0.00
2023-01-21T16:02:11.145Z,0.00
2023-01-21T16:04:40.692Z,0.00
2023-01-21T16:07:33.790Z,-0.10
2023-01-21T16:10:09.655Z,-0.10
2023-01-21T16:12:36.249Z,0.00
2023-01-21T16:15:11.966Z,0.00
2023-01-21T16:17:44.917Z,-0.10
2023-01-21T16:20:12.607Z,-0.10
2023-01-21T16:22:40.716Z,0.00
2023-01-21T16:25:09.017Z,-0.10
2023-01-21T16:27:36.212Z,-0.10
2023-01-21T16:30:05.765Z,-0.10
2023-01-21T16:32:32.777Z,-0.10
2023-01-21T16:35:00.531Z,-0.10
2023-01-21T16:37:28.311Z,-0.10
2023-01-21T16:39:56.304Z,-0.20
2023-01-21T16:42:22.882Z,-0.20
2023-01-21T16:44:49.855Z,-0.10
2023-01-21T16:47:20.377Z,-0.10
2023-01-21T16:49:47.054Z,-0.10
2023-01-21T16:52:19.920Z,-0.10
2023-01-21T17:02:57.169Z,-0.10
2023-01-21T17:05:27.559Z,-0.20
2023-01-21T17:07:56.225Z,-0.10
2023-01-21T17:10:29.046Z,-0.10
2023-01-21T17:13:00.266Z,-0.10
2023-01-21T17:15:41.901Z,-0.20
2023-01-21T17:18:17.448Z,-0.20
2023-01-21T17:20:48.144Z,-0.20
2023-01-21T17:23:26.757Z,-0.20
2023-01-21T17:25:57.072Z,-0.10
2023-01-21T17:28:31.071Z,-0.20
2023-01-21T17:31:14.355Z,-0.10
2023-01-21T17:33:42.526Z,-0.10
2023-01-21T17:36:29.166Z,-0.10
2023-01-21T17:38:55.811Z,-0.10
2023-01-21T17:41:26.938Z,-0.10
2023-01-21T17:43:55.563Z,-0.10
2023-01-21T17:46:23.340Z,-0.10
2023-01-21T17:48:53.055Z,-0.10
2023-01-21T17:51:27.680Z,-0.10
2023-01-21T17:53:56.436Z,-0.10
2023-01-21T17:56:34.299Z,0.00
2023-01-21T17:59:11.388Z,0.00
2023-01-21T18:01:38.064Z,0.00
2023-01-21T18:04:04.929Z,0.00
2023-01-21T18:06:33.794Z,0.00
2023-01-21T18:09:01.069Z,0.00
2023-01-21T18:11:28.800Z,0.00
2023-01-21T18:13:55.436Z,0.00
2023-01-21T18:16:22.096Z,0.10
2023-01-21T18:18:52.476Z,0.10
2023-01-21T18:21:20.670Z,0.10
2023-01-21T18:23:47.901Z,0.10
2023-01-21T18:26:22.916Z,0.10
2023-01-21T18:28:49.656Z,0.10
2023-01-21T18:31:16.527Z,0.10
2023-01-21T18:33:43.194Z,0.10
2023-01-21T18:36:12.799Z,0.10
2023-01-21T18:38:39.697Z,0.10
2023-01-21T18:41:17.592Z,0.10
2023-01-21T18:43:44.239Z,0.00
2023-01-21T18:46:12.260Z,0.00
2023-01-21T18:48:39.066Z,0.00
2023-01-21T18:51:05.911Z,0.00
2023-01-21T18:53:33.101Z,0.00
2023-01-21T18:55:59.875Z,0.00
2023-01-21T18:58:26.616Z,0.00
2023-01-21T19:00:53.299Z,0.00
2023-01-21T19:03:20.159Z,0.00
2023-01-21T19:05:50.872Z,0.00
2023-01-21T19:08:19.095Z,-0.10
2023-01-21T19:10:45.768Z,0.00
2023-01-21T19:13:12.740Z,0.00
2023-01-21T19:15:39.501Z,0.00
2023-01-21T19:18:10.084Z,0.00
2023-01-21T19:20:45.762Z,0.00
2023-01-21T19:23:18.908Z,-0.10
2023-01-21T19:25:50.489Z,-0.10
2023-01-21T19:28:23.668Z,-0.10
2023-01-21T19:30:55.351Z,-0.10
2023-01-21T19:33:22.709Z,-0.10
2023-01-21T19:35:49.526Z,-0.10
2023-01-21T19:38:30.517Z,-0.10
2023-01-21T19:40:57.273Z,0.00
2023-01-21T19:52:13.523Z,-0.10
2023-01-21T19:54:40.181Z,0.00
2023-01-21T19:57:11.610Z,-0.10
2023-01-21T19:59:39.311Z,0.00
2023-01-21T20:02:06.212Z,-0.10
2023-01-21T20:04:32.889Z,-0.10
2023-01-21T20:06:59.625Z,-0.10
2023-01-21T20:19:16.856Z,-0.10
2023-01-21T20:22:01.173Z,-0.20
2023-01-21T20:25:12.120Z,-0.10
2023-01-21T20:41:30.613Z,-0.20
2023-01-21T20:43:57.900Z,-0.30
2023-01-21T20:53:51.797Z,-0.30
2023-01-21T20:56:24.324Z,-0.30
2023-01-21T20:58:51.029Z,-0.30
2023-01-21T21:01:19.336Z,-0.30
2023-01-21T21:03:46.322Z,-0.30
2023-01-21T21:06:14.144Z,-0.30
2023-01-21T21:08:43.853Z,-0.30
2023-01-21T21:11:17.705Z,-0.30
2023-01-21T21:13:46.934Z,-0.40
2023-01-21T21:16:18.834Z,-0.30
2023-01-21T21:18:56.206Z,-0.30
2023-01-21T21:21:23.950Z,-0.30
2023-01-21T21:24:06.658Z,-0.30
2023-01-21T21:27:06.442Z,-0.40
2023-01-21T21:30:07.837Z,-0.40
2023-01-21T21:33:16.895Z,-0.40
2023-01-21T21:36:57.786Z,-0.30
2023-01-21T21:39:47.652Z,-0.30
2023-01-21T21:42:44.370Z,-0.30
2023-01-21T21:45:11.511Z,-0.30
2023-01-21T22:00:46.042Z,-0.40
2023-01-21T22:03:16.725Z,-0.30
2023-01-21T22:05:50.366Z,-0.30
2023-01-21T22:08:17.782Z,-0.40
2023-01-21T22:10:44.473Z,-0.40
2023-01-21T22:13:40.372Z,-0.30
2023-01-21T22:16:08.145Z,-0.30
2023-01-21T22:21:20.359Z,-0.30
2023-01-21T22:23:50.616Z,-0.40
2023-01-21T22:26:18.750Z,-0.30
2023-01-21T22:28:45.423Z,-0.40
2023-01-21T22:34:44.137Z,-0.30
2023-01-21T22:37:10.787Z,-0.30
2023-01-21T22:39:37.393Z,-0.40
2023-01-21T22:42:05.231Z,-0.30
2023-01-21T22:44:31.839Z,-0.30
2023-01-21T22:46:58.811Z,-0.30
2023-01-21T22:49:31.640Z,-0.40
2023-01-21T22:51:58.276Z,-0.40
2023-01-21T22:54:28.165Z,-0.40
2023-01-21T22:56:54.799Z,-0.40
2023-01-21T22:59:21.637Z,-0.40
2023-01-21T23:01:50.798Z,-0.40
2023-01-21T23:04:17.771Z,-0.40
2023-01-21T23:06:44.835Z,-0.40
2023-01-21T23:09:18.050Z,-0.40
2023-01-21T23:11:45.215Z,-0.30
2023-01-21T23:14:12.148Z,-0.40
2023-01-21T23:16:39.275Z,-0.40
2023-01-21T23:19:06.034Z,-0.40
2023-01-21T23:21:32.887Z,-0.40
2023-01-21T23:23:59.603Z,-0.40
2023-01-21T23:26:26.259Z,-0.40
2023-01-21T23:28:56.716Z,-0.40
2023-01-21T23:31:23.541Z,-0.40
2023-01-21T23:33:51.203Z,-0.40
2023-01-21T23:36:17.994Z,-0.40
2023-01-21T23:39:17.235Z,-0.40
2023-01-21T23:51:39.967Z,-0.40
2023-01-21T23:54:06.653Z,-0.50
2023-01-21T23:56:34.312Z,-0.50
2023-01-21T23:59:00.989Z,-0.50
